createdAt,value
2022-09-01T00:00:01.250Z,18.10
2022-09-01T00:02:29.397Z,18.10
2022-09-01T00:04:58.954Z,18.00
2022-09-01T00:07:30.446Z,17.90
2022-09-01T00:09:59.258Z,17.90
2022-09-01T00:12:26.721Z,17.80
2022-09-01T00:14:54.643Z,17.70
2022-09-01T00:17:21.651Z,17.60
2022-09-01T00:19:48.540Z,17.60
2022-09-01T00:22:15.530Z,17.50
2022-09-01T00:24:42.496Z,17.30
2022-09-01T00:27:09.492Z,17.30
2022-09-01T00:29:36.814Z,17.40
2022-09-01T00:32:04.093Z,17.40
2022-09-01T00:34:31.124Z,17.30
2022-09-01T00:36:57.993Z,17.30
2022-09-01T00:39:25.064Z,17.20
2022-09-01T00:41:52.513Z,17.00
2022-09-01T00:44:24.378Z,16.90
2022-09-01T00:46:55.125Z,16.80
2022-09-01T00:49:35.044Z,16.70
2022-09-01T00:52:19.298Z,16.60
2022-09-01T00:54:53.618Z,16.60
2022-09-01T00:57:21.417Z,16.50
2022-09-01T00:59:58.056Z,16.40
2022-09-01T01:02:26.554Z,16.40
2022-09-01T01:04:56.176Z,16.40
2022-09-01T01:07:24.087Z,16.50
2022-09-01T01:09:51.948Z,16.60
2022-09-01T01:12:19.955Z,16.60
2022-09-01T01:14:51.897Z,16.40
2022-09-01T01:17:21.380Z,16.30
2022-09-01T01:20:15.354Z,16.30
2022-09-01T01:23:16.231Z,16.20
2022-09-01T01:25:48.775Z,16.20
2022-09-01T01:28:27.079Z,16.20
2022-09-01T01:30:57.900Z,16.20
2022-09-01T01:33:46.671Z,16.10
2022-09-01T01:36:19.560Z,16.00
2022-09-01T01:38:48.356Z,16.10
2022-09-01T01:41:18.037Z,16.00
2022-09-01T01:43:44.945Z,15.80
2022-09-01T01:46:14.496Z,15.80
2022-09-01T01:48:42.837Z,15.70
2022-09-01T01:51:11.929Z,15.70
2022-09-01T01:53:39.928Z,15.60
2022-09-01T01:56:09.074Z,15.70
2022-09-01T01:58:36.238Z,15.60
2022-09-01T02:01:03.732Z,15.60
2022-09-01T02:03:38.615Z,15.60
2022-09-01T02:06:11.942Z,15.60
2022-09-01T02:08:40.871Z,15.40
2022-09-01T02:11:09.173Z,15.40
2022-09-01T02:13:36.233Z,15.40
2022-09-01T02:16:07.858Z,15.50
2022-09-01T02:18:38.416Z,15.50
2022-09-01T02:21:15.059Z,15.50
2022-09-01T02:23:44.596Z,15.40
2022-09-01T02:26:19.352Z,15.40
2022-09-01T02:28:54.274Z,15.50
2022-09-01T02:31:23.244Z,15.50
2022-09-01T02:33:51.114Z,15.40
2022-09-01T02:36:19.718Z,15.40
2022-09-01T02:38:53.073Z,15.30
2022-09-01T02:41:23.791Z,15.40
2022-09-01T02:43:51.293Z,15.30
2022-09-01T02:46:24.604Z,15.30
2022-09-01T02:48:52.657Z,15.40
2022-09-01T02:51:25.594Z,15.30
2022-09-01T02:53:53.275Z,15.10
2022-09-01T02:56:25.562Z,15.20
2022-09-01T02:58:54.012Z,15.20
2022-09-01T03:01:30.250Z,15.20
2022-09-01T03:04:05.849Z,15.20
2022-09-01T03:06:34.603Z,15.30
2022-09-01T03:09:03.033Z,15.00
2022-09-01T03:11:32.600Z,14.80
2022-09-01T03:14:00.184Z,14.80
2022-09-01T03:16:27.846Z,14.60
2022-09-01T03:18:54.773Z,14.70
2022-09-01T03:21:23.385Z,14.70
2022-09-01T03:23:52.155Z,14.60
2022-09-01T03:26:22.226Z,14.60
2022-09-01T03:28:51.344Z,14.50
2022-09-01T03:31:20.183Z,14.50
2022-09-01T03:33:47.695Z,14.50
2022-09-01T03:36:19.498Z,14.50
2022-09-01T03:38:50.967Z,14.50
2022-09-01T03:41:22.467Z,14.40
2022-09-01T03:43:51.269Z,14.30
2022-09-01T03:46:21.596Z,14.20
2022-09-01T03:48:58.787Z,14.20
2022-09-01T03:51:26.316Z,14.20
2022-09-01T03:53:55.133Z,14.10
2022-09-01T03:56:29.652Z,14.10
2022-09-01T03:58:58.907Z,14.10
2022-09-01T04:01:28.270Z,14.10
2022-09-01T04:03:55.289Z,14.10
2022-09-01T04:06:24.279Z,14.10
2022-09-01T04:08:56.902Z,14.00
2022-09-01T04:11:24.297Z,13.90
2022-09-01T04:13:52.461Z,13.90
2022-09-01T04:16:46.435Z,13.90
2022-09-01T04:19:26.131Z,13.80
2022-09-01T04:21:56.103Z,13.90
2022-09-01T04:24:24.870Z,13.90
2022-09-01T04:26:52.825Z,13.80
2022-09-01T04:29:27.776Z,13.80
2022-09-01T04:32:02.695Z,13.70
2022-09-01T04:34:37.579Z,13.70
2022-09-01T04:37:08.844Z,13.70
2022-09-01T04:39:36.948Z,13.60
2022-09-01T04:42:09.253Z,13.50
2022-09-01T04:44:36.779Z,13.50
2022-09-01T04:47:03.764Z,13.40
2022-09-01T04:49:33.835Z,13.40
2022-09-01T04:52:00.980Z,13.40
2022-09-01T04:54:27.984Z,13.40
2022-09-01T04:56:55.103Z,13.40
2022-09-01T04:59:24.717Z,13.40
2022-09-01T05:01:54.940Z,13.30
2022-09-01T05:04:25.201Z,13.20
2022-09-01T05:06:57.144Z,13.40
2022-09-01T05:09:25.280Z,13.30
2022-09-01T05:11:53.070Z,13.30
2022-09-01T05:14:21.526Z,13.30
2022-09-01T05:16:49.267Z,13.30
2022-09-01T05:19:20.998Z,13.40
2022-09-01T05:21:48.448Z,13.50
2022-09-01T05:24:21.916Z,13.40
2022-09-01T05:26:50.716Z,13.40
2022-09-01T05:29:19.116Z,13.40
2022-09-01T05:31:49.585Z,13.40
2022-09-01T05:34:27.079Z,13.40
2022-09-01T05:36:59.317Z,13.40
2022-09-01T05:39:27.400Z,13.50
2022-09-01T05:41:54.845Z,13.50
2022-09-01T05:44:23.037Z,13.60
2022-09-01T05:46:50.629Z,13.70
2022-09-01T05:49:18.665Z,13.70
2022-09-01T05:51:51.906Z,13.80
2022-09-01T05:54:25.783Z,13.90
2022-09-01T05:56:53.742Z,14.00
2022-09-01T05:59:25.587Z,14.10
2022-09-01T06:01:54.594Z,14.20
2022-09-01T06:04:23.035Z,14.40
2022-09-01T06:07:07.798Z,14.50
2022-09-01T06:09:47.683Z,14.60
2022-09-01T06:12:20.400Z,14.70
2022-09-01T06:14:48.651Z,14.80
2022-09-01T06:17:17.029Z,14.90
2022-09-01T06:19:45.060Z,15.00
2022-09-01T06:22:12.325Z,15.10
2022-09-01T06:24:41.010Z,15.30
2022-09-01T06:27:11.901Z,15.30
2022-09-01T06:29:39.913Z,15.50
2022-09-01T06:32:10.576Z,15.70
2022-09-01T06:34:42.693Z,15.70
2022-09-01T06:37:13.499Z,15.70
2022-09-01T06:39:40.463Z,15.80
2022-09-01T06:42:13.828Z,15.90
2022-09-01T06:44:41.215Z,16.00
2022-09-01T06:47:09.183Z,16.10
2022-09-01T06:49:36.778Z,16.20
2022-09-01T06:52:04.490Z,16.30
2022-09-01T06:54:35.667Z,16.40
2022-09-01T06:59:52.640Z,16.60
2022-09-01T07:05:59.848Z,16.80
2022-09-01T07:08:06.190Z,16.90
2022-09-01T07:10:33.359Z,17.00
2022-09-01T07:13:09.003Z,17.10
2022-09-01T07:18:31.652Z,17.40
2022-09-01T07:21:07.047Z,17.50
2022-09-01T07:24:10.881Z,17.70
2022-09-01T07:26:26.469Z,17.60
2022-09-01T07:29:01.032Z,17.70
2022-09-01T07:39:54.936Z,18.10
2022-09-01T07:42:59.096Z,16.80
2022-09-01T07:45:27.535Z,18.10
2022-09-01T07:47:55.769Z,18.20
2022-09-01T07:50:38.550Z,18.20
2022-09-01T07:53:06.634Z,18.40
2022-09-01T07:55:34.840Z,18.70
2022-09-01T07:58:01.745Z,18.70
2022-09-01T08:00:31.867Z,18.80
2022-09-01T08:02:59.174Z,18.80
2022-09-01T08:05:27.350Z,18.80
2022-09-01T08:07:55.096Z,19.00
2022-09-01T08:10:22.168Z,19.20
2022-09-01T08:12:56.422Z,19.10
2022-09-01T08:15:41.061Z,19.20
2022-09-01T08:18:09.403Z,19.40
2022-09-01T08:20:39.985Z,19.30
2022-09-01T08:23:07.328Z,19.60
2022-09-01T08:25:39.578Z,19.70
2022-09-01T08:28:07.820Z,19.70
2022-09-01T08:30:36.021Z,19.80
2022-09-01T08:33:10.750Z,20.00
2022-09-01T08:35:42.418Z,20.00
2022-09-01T08:38:10.112Z,20.00
2022-09-01T08:40:40.800Z,19.80
2022-09-01T08:43:21.412Z,20.00
2022-09-01T08:45:55.194Z,20.00
2022-09-01T08:51:48.068Z,20.30
2022-09-01T08:54:42.576Z,20.30
2022-09-01T08:57:34.755Z,20.60
2022-09-01T09:00:01.952Z,20.70
2022-09-01T09:02:53.902Z,20.90
2022-09-01T09:05:58.854Z,21.00
2022-09-01T09:08:36.851Z,20.90
2022-09-01T09:11:28.363Z,21.10
2022-09-01T09:14:30.047Z,21.10
2022-09-01T09:16:57.645Z,21.20
2022-09-01T09:19:26.527Z,20.90
2022-09-01T09:21:55.715Z,20.90
2022-09-01T09:24:53.007Z,21.30
2022-09-01T09:27:22.189Z,21.40
2022-09-01T09:29:55.061Z,21.60
2022-09-01T09:32:31.344Z,21.60
2022-09-01T09:35:23.824Z,21.60
2022-09-01T09:37:56.801Z,21.90
2022-09-01T09:40:27.639Z,22.10
2022-09-01T09:42:54.652Z,22.10
2022-09-01T09:45:48.050Z,21.80
2022-09-01T09:48:31.570Z,22.00
2022-09-01T09:51:22.160Z,22.20
2022-09-01T09:53:49.984Z,22.20
2022-09-01T09:56:24.992Z,22.30
2022-09-01T09:58:53.543Z,22.50
2022-09-01T10:01:24.563Z,22.70
2022-09-01T10:04:04.282Z,23.00
2022-09-01T10:06:46.846Z,23.10
2022-09-01T10:09:33.648Z,23.10
2022-09-01T10:12:02.641Z,23.20
2022-09-01T10:14:52.001Z,23.40
2022-09-01T10:17:35.967Z,23.50
2022-09-01T10:20:11.456Z,23.50
2022-09-01T10:22:39.805Z,23.60
2022-09-01T10:25:11.203Z,23.70
2022-09-01T10:27:42.324Z,23.90
2022-09-01T10:30:18.903Z,23.80
2022-09-01T10:32:57.038Z,24.10
2022-09-01T10:35:45.833Z,24.30
2022-09-01T10:38:31.197Z,23.90
2022-09-01T10:41:14.276Z,24.20
2022-09-01T10:43:50.527Z,24.10
2022-09-01T10:46:24.746Z,23.80
2022-09-01T10:48:56.642Z,23.80
2022-09-01T10:51:36.261Z,23.90
2022-09-01T10:54:06.831Z,24.00
2022-09-01T10:56:51.736Z,24.00
2022-09-01T10:59:33.615Z,23.80
2022-09-01T11:02:28.526Z,24.30
2022-09-01T11:05:10.295Z,24.60
2022-09-01T11:07:59.792Z,24.40
2022-09-01T11:10:50.153Z,23.70
2022-09-01T11:13:49.071Z,23.80
2022-09-01T11:16:49.582Z,23.60
2022-09-01T11:19:32.017Z,23.60
2022-09-01T11:22:07.838Z,23.90
2022-09-01T11:24:50.827Z,23.90
2022-09-01T11:28:03.675Z,24.00
2022-09-01T11:30:41.898Z,24.20
2022-09-01T11:33:26.410Z,23.90
2022-09-01T11:36:01.112Z,23.80
2022-09-01T11:38:29.470Z,24.10
2022-09-01T11:40:57.615Z,24.30
2022-09-01T11:43:27.238Z,24.60
2022-09-01T11:46:20.922Z,24.50
2022-09-01T11:48:51.787Z,24.10
2022-09-01T11:51:21.481Z,24.00
2022-09-01T11:53:50.533Z,24.00
2022-09-01T11:56:18.931Z,23.90
2022-09-01T11:58:46.020Z,23.80
2022-09-01T12:01:17.823Z,23.70
2022-09-01T12:03:47.138Z,23.60
2022-09-01T12:06:23.019Z,23.60
2022-09-01T12:09:04.146Z,23.70
2022-09-01T12:11:34.817Z,23.90
2022-09-01T12:14:08.962Z,24.60
2022-09-01T12:16:42.466Z,25.20
2022-09-01T12:19:24.087Z,25.70
2022-09-01T12:22:04.936Z,26.10
2022-09-01T12:24:35.942Z,26.00
2022-09-01T12:27:04.959Z,26.20
2022-09-01T12:29:33.226Z,26.50
2022-09-01T12:32:01.784Z,26.90
2022-09-01T12:34:42.653Z,27.20
2022-09-01T12:37:21.405Z,27.20
2022-09-01T12:40:12.987Z,26.80
2022-09-01T12:42:50.563Z,26.80
2022-09-01T12:45:40.893Z,27.20
2022-09-01T12:48:24.005Z,27.40
2022-09-01T12:50:51.673Z,27.30
2022-09-01T12:53:21.660Z,27.30
2022-09-01T12:56:05.055Z,27.70
2022-09-01T12:58:33.225Z,27.50
2022-09-01T13:01:02.220Z,27.20
2022-09-01T13:03:30.255Z,26.60
2022-09-01T13:05:59.979Z,26.20
2022-09-01T13:08:30.669Z,25.90
2022-09-01T13:11:11.411Z,25.50
2022-09-01T13:13:38.459Z,25.30
2022-09-01T13:16:13.065Z,25.20
2022-09-01T13:21:30.613Z,26.00
2022-09-01T13:23:58.105Z,26.80
2022-09-01T13:26:26.342Z,27.90
2022-09-01T13:28:53.947Z,28.60
2022-09-01T13:31:29.069Z,28.90
2022-09-01T13:34:22.503Z,28.60
2022-09-01T13:36:46.325Z,27.60
2022-09-01T13:39:15.871Z,27.00
2022-09-01T13:41:43.258Z,26.40
2022-09-01T13:44:11.700Z,26.10
2022-09-01T13:52:13.328Z,27.10
2022-09-01T13:54:40.343Z,27.10
2022-09-01T13:57:07.685Z,27.30
2022-09-01T13:59:34.824Z,26.70
2022-09-01T14:02:01.811Z,26.50
2022-09-01T14:04:29.108Z,26.40
2022-09-01T14:06:56.580Z,26.20
2022-09-01T14:09:25.700Z,25.60
2022-09-01T14:11:57.168Z,25.20
2022-09-01T14:14:24.534Z,25.40
2022-09-01T14:16:52.012Z,25.20
2022-09-01T14:19:19.093Z,25.10
2022-09-01T14:21:47.409Z,25.90
2022-09-01T14:24:15.216Z,27.30
2022-09-01T14:26:42.508Z,27.30
2022-09-01T14:29:09.599Z,27.20
2022-09-01T14:31:37.928Z,28.60
2022-09-01T14:34:06.860Z,29.30
2022-09-01T14:36:33.830Z,28.80
2022-09-01T14:39:00.807Z,27.40
2022-09-01T14:41:27.688Z,26.90
2022-09-01T14:44:02.783Z,26.30
2022-09-01T14:46:33.982Z,25.90
2022-09-01T14:49:02.311Z,25.40
2022-09-01T14:54:17.930Z,25.10
2022-09-01T14:57:28.565Z,25.10
2022-09-01T14:59:33.056Z,25.00
2022-09-01T15:02:00.133Z,24.70
2022-09-01T15:04:27.987Z,25.40
2022-09-01T15:06:55.455Z,27.50
2022-09-01T15:09:22.812Z,30.00
2022-09-01T15:11:49.818Z,31.40
2022-09-01T15:14:16.987Z,32.90
2022-09-01T15:16:44.530Z,34.00
2022-09-01T15:19:13.776Z,34.30
2022-09-01T15:21:43.503Z,33.70
2022-09-01T15:24:10.965Z,32.80
2022-09-01T15:26:40.827Z,31.40
2022-09-01T15:29:12.020Z,30.90
2022-09-01T15:31:39.917Z,30.60
2022-09-01T15:34:07.514Z,29.40
2022-09-01T15:36:40.138Z,28.60
2022-09-01T15:39:09.266Z,27.70
2022-09-01T15:41:36.448Z,27.20
2022-09-01T15:44:07.073Z,26.80
2022-09-01T15:46:35.987Z,26.50
2022-09-01T15:49:06.568Z,26.30
2022-09-01T15:51:36.863Z,26.00
2022-09-01T15:54:12.755Z,26.10
2022-09-01T15:56:40.352Z,26.10
2022-09-01T15:59:08.750Z,25.90
2022-09-01T16:01:39.150Z,26.10
2022-09-01T16:04:08.394Z,26.30
2022-09-01T16:06:36.016Z,26.40
2022-09-01T16:09:03.056Z,26.80
2022-09-01T16:11:30.034Z,26.70
2022-09-01T16:13:57.052Z,26.60
2022-09-01T16:16:45.033Z,26.60
2022-09-01T16:19:32.023Z,26.50
2022-09-01T16:22:18.507Z,26.70
2022-09-01T16:24:49.077Z,26.70
2022-09-01T16:27:19.193Z,26.60
2022-09-01T16:29:53.166Z,26.40
2022-09-01T16:32:23.288Z,26.40
2022-09-01T16:34:52.028Z,26.50
2022-09-01T16:37:42.790Z,26.30
2022-09-01T16:40:47.112Z,26.00
2022-09-01T16:43:30.295Z,25.90
2022-09-01T16:46:07.569Z,25.70
2022-09-01T16:48:46.838Z,25.50
2022-09-01T16:51:46.062Z,25.40
2022-09-01T16:54:44.943Z,25.50
2022-09-01T16:57:54.159Z,25.20
2022-09-01T17:00:30.686Z,25.20
2022-09-01T17:03:19.263Z,25.30
2022-09-01T17:05:54.909Z,25.00
2022-09-01T17:08:31.062Z,24.90
2022-09-01T17:11:04.795Z,24.80
2022-09-01T17:13:32.586Z,24.90
2022-09-01T17:16:08.190Z,24.80
2022-09-01T17:18:40.763Z,24.60
2022-09-01T17:21:11.342Z,24.60
2022-09-01T17:23:46.416Z,24.40
2022-09-01T17:26:23.632Z,24.40
2022-09-01T17:29:24.553Z,24.30
2022-09-01T17:32:31.049Z,24.20
2022-09-01T17:35:19.284Z,24.10
2022-09-01T17:38:19.422Z,23.80
2022-09-01T17:41:13.699Z,23.70
2022-09-01T17:44:21.656Z,23.60
2022-09-01T17:47:03.042Z,23.50
2022-09-01T17:49:55.945Z,23.40
2022-09-01T17:52:47.448Z,23.30
2022-09-01T17:55:38.166Z,23.10
2022-09-01T17:58:27.032Z,22.80
2022-09-01T18:01:09.992Z,22.60
2022-09-01T18:03:58.075Z,22.60
2022-09-01T18:06:36.738Z,22.40
2022-09-01T18:09:04.084Z,22.30
2022-09-01T18:11:52.475Z,21.90
2022-09-01T18:14:33.201Z,21.90
2022-09-01T18:17:15.180Z,21.80
2022-09-01T18:19:48.028Z,21.70
2022-09-01T18:22:20.691Z,21.50
2022-09-01T18:24:58.978Z,21.50
2022-09-01T18:27:29.977Z,21.30
2022-09-01T18:30:01.535Z,21.20
2022-09-01T18:32:37.788Z,21.10
2022-09-01T18:35:33.537Z,20.90
2022-09-01T18:38:45.075Z,20.80
2022-09-01T18:41:33.707Z,20.60
2022-09-01T18:44:37.070Z,20.60
2022-09-01T18:47:08.855Z,20.50
2022-09-01T18:49:41.683Z,20.50
2022-09-01T18:52:18.203Z,20.30
2022-09-01T18:54:58.586Z,20.30
2022-09-01T18:57:37.399Z,20.20
2022-09-01T19:00:18.628Z,20.10
2022-09-01T19:03:27.725Z,19.90
2022-09-01T19:06:06.550Z,19.80
2022-09-01T19:08:57.365Z,19.70
2022-09-01T19:11:41.430Z,19.70
2022-09-01T19:14:35.185Z,19.70
2022-09-01T19:17:14.380Z,19.60
2022-09-01T19:20:10.742Z,19.60
2022-09-01T19:22:50.567Z,19.40
2022-09-01T19:25:36.868Z,19.50
2022-09-01T19:28:09.705Z,19.40
2022-09-01T19:30:51.842Z,19.40
2022-09-01T19:33:26.607Z,19.50
2022-09-01T19:35:59.864Z,19.50
2022-09-01T19:38:31.644Z,19.40
2022-09-01T19:41:29.193Z,19.40
2022-09-01T19:44:08.404Z,19.30
2022-09-01T19:46:47.380Z,19.30
2022-09-01T19:49:31.581Z,19.30
2022-09-01T19:51:58.604Z,19.30
2022-09-01T19:54:34.860Z,19.20
2022-09-01T19:57:06.381Z,19.30
2022-09-01T19:59:58.168Z,19.20
2022-09-01T20:02:55.007Z,19.20
2022-09-01T20:05:42.752Z,19.10
2022-09-01T20:08:33.990Z,19.10
2022-09-01T20:11:34.020Z,19.10
2022-09-01T20:14:29.021Z,19.20
2022-09-01T20:17:01.241Z,19.20
2022-09-01T20:19:29.998Z,19.30
2022-09-01T20:22:18.138Z,19.30
2022-09-01T20:24:45.742Z,19.30
2022-09-01T20:27:50.628Z,19.40
2022-09-01T20:30:27.143Z,19.60
2022-09-01T20:33:15.331Z,19.60
2022-09-01T20:35:56.511Z,19.70
2022-09-01T20:39:11.663Z,19.80
2022-09-01T20:41:57.530Z,19.90
2022-09-01T20:44:30.598Z,19.90
2022-09-01T20:46:57.938Z,19.90
2022-09-01T20:49:24.963Z,19.80
2022-09-01T20:52:33.286Z,19.80
2022-09-01T20:55:12.513Z,19.80
2022-09-01T20:57:51.412Z,19.70
2022-09-01T21:00:26.032Z,19.70
2022-09-01T21:03:20.727Z,19.70
2022-09-01T21:05:52.257Z,19.70
2022-09-01T21:08:49.032Z,19.60
2022-09-01T21:11:46.001Z,19.60
2022-09-01T21:14:35.713Z,19.60
2022-09-01T21:17:09.052Z,19.50
2022-09-01T21:19:35.947Z,19.60
2022-09-01T21:22:18.492Z,19.60
2022-09-01T21:24:48.224Z,19.80
2022-09-01T21:27:19.143Z,19.80
2022-09-01T21:30:07.847Z,19.90
2022-09-01T21:32:35.047Z,19.90
2022-09-01T21:35:03.795Z,19.90
2022-09-01T21:37:30.811Z,19.90
2022-09-01T21:39:58.109Z,19.90
2022-09-01T21:42:35.616Z,19.90
2022-09-01T21:45:05.112Z,20.00
2022-09-01T21:47:32.799Z,20.00
2022-09-01T21:50:00.162Z,20.00
2022-09-01T21:52:27.427Z,20.00
2022-09-01T21:54:54.479Z,20.00
2022-09-01T21:57:23.125Z,20.00
2022-09-01T21:59:51.481Z,20.00
2022-09-01T22:02:20.130Z,19.90
2022-09-01T22:04:48.956Z,19.90
2022-09-01T22:07:19.158Z,19.90
2022-09-01T22:09:47.238Z,19.90
2022-09-01T22:12:14.710Z,19.90
2022-09-01T22:14:41.697Z,19.80
2022-09-01T22:17:08.663Z,19.80
2022-09-01T22:19:36.680Z,19.80
2022-09-01T22:22:04.071Z,19.80
2022-09-01T22:24:31.563Z,19.80
2022-09-01T22:26:58.800Z,19.70
2022-09-01T22:29:25.708Z,19.70
2022-09-01T22:31:52.970Z,19.70
2022-09-01T22:34:19.908Z,19.50
2022-09-01T22:36:49.244Z,19.50
2022-09-01T22:39:17.770Z,19.50
2022-09-01T22:41:44.862Z,19.50
2022-09-01T22:44:12.722Z,19.40
2022-09-01T22:46:40.100Z,19.40
2022-09-01T22:49:08.157Z,19.30
2022-09-01T22:51:37.235Z,19.30
2022-09-01T22:54:04.338Z,19.20
2022-09-01T22:56:33.013Z,19.20
2022-09-01T22:59:02.677Z,19.10
2022-09-01T23:01:33.248Z,19.10
2022-09-01T23:04:01.970Z,19.10
2022-09-01T23:06:31.235Z,19.00
2022-09-01T23:09:01.308Z,18.90
2022-09-01T23:11:28.711Z,18.80
2022-09-01T23:13:56.076Z,18.80
2022-09-01T23:16:24.875Z,18.70
2022-09-01T23:18:52.862Z,18.70
2022-09-01T23:21:24.107Z,18.70
2022-09-01T23:23:58.542Z,18.50
2022-09-01T23:26:26.967Z,18.50
2022-09-01T23:28:53.967Z,18.50
2022-09-01T23:31:24.741Z,18.50
2022-09-01T23:33:52.304Z,18.50
2022-09-01T23:36:22.236Z,18.50
2022-09-01T23:38:49.865Z,18.40
2022-09-01T23:41:23.370Z,18.30
2022-09-01T23:43:51.488Z,18.30
2022-09-01T23:46:21.745Z,18.30
2022-09-01T23:48:48.876Z,18.30
2022-09-01T23:51:18.214Z,18.20
2022-09-01T23:53:46.771Z,18.20
2022-09-01T23:56:17.064Z,18.20
2022-09-01T23:58:44.374Z,18.10
